Time;durP1;ratioP1;P1;durP2;ratioP2;P2;SDS_P1;SDS_P2;PMS_P1;PMS_P2;Temp;Humidity;BMP_temperature;BMP_pressure;BME280_temperature;BME280_humidity;BME280_pressure;Samples;Min_cycle;Max_cycle;Signal;HPM_P1;HPM_P2
2023/04/24 00:00:17;;;;;;;10.55;5.80;;;12.00;99.90;;;;;;4919305;28;20275;-86
2023/04/24 00:02:47;;;;;;;11.27;6.30;;;12.00;99.90;;;;;;4935524;28;20049;-84
2023/04/24 00:05:17;;;;;;;9.35;5.50;;;12.00;99.90;;;;;;4925147;28;20050;-86
2023/04/24 00:07:44;;;;;;;10.33;5.33;;;12.00;99.90;;;;;;4932181;28;20591;-87
2023/04/24 00:10:11;;;;;;;10.40;5.88;;;12.00;99.90;;;;;;4931653;28;20070;-88
2023/04/24 00:12:38;;;;;;;12.93;6.80;;;12.00;99.90;;;;;;4924313;28;20384;-87
2023/04/24 00:15:05;;;;;;;9.20;5.50;;;12.00;99.90;;;;;;4939897;28;20034;-86
2023/04/24 00:17:30;;;;;;;13.07;6.20;;;12.10;99.90;;;;;;4912919;28;20559;-86
2023/04/24 00:19:58;;;;;;;8.30;5.47;;;12.10;99.90;;;;;;4944009;28;20058;-84
2023/04/24 00:22:27;;;;;;;10.18;5.78;;;12.10;99.90;;;;;;4922063;28;20789;-84
2023/04/24 00:24:54;;;;;;;10.57;5.72;;;12.10;99.90;;;;;;4938404;28;20443;-85
2023/04/24 00:27:20;;;;;;;13.20;6.25;;;12.10;99.90;;;;;;4931266;28;20517;-85
2023/04/24 00:29:46;;;;;;;10.63;5.70;;;12.00;99.90;;;;;;4940832;28;20059;-84
2023/04/24 00:32:12;;;;;;;10.55;6.30;;;12.00;99.90;;;;;;4932318;28;20016;-86
2023/04/24 00:34:38;;;;;;;9.60;5.75;;;12.10;99.90;;;;;;4916515;28;20094;-87
2023/04/24 00:37:03;;;;;;;11.37;6.40;;;12.00;99.90;;;;;;4939655;28;20023;-87
2023/04/24 00:39:29;;;;;;;8.80;5.35;;;12.00;99.90;;;;;;4927203;28;20097;-84
2023/04/24 00:41:56;;;;;;;8.20;5.27;;;12.00;99.90;;;;;;4928161;28;20568;-83
2023/04/24 00:44:22;;;;;;;10.38;5.70;;;12.00;99.90;;;;;;4936733;28;20058;-82
2023/04/24 00:46:54;;;;;;;11.75;5.60;;;12.00;99.90;;;;;;4926256;28;20126;-86
2023/04/24 00:49:21;;;;;;;10.52;6.07;;;12.00;99.90;;;;;;4924910;28;20100;-83
2023/04/24 00:51:49;;;;;;;10.87;6.03;;;12.00;99.90;;;;;;4945018;28;20038;-84
2023/04/24 00:54:15;;;;;;;8.88;5.10;;;12.00;99.90;;;;;;4932052;28;20096;-86
2023/04/24 00:56:42;;;;;;;8.30;5.47;;;12.00;99.90;;;;;;4938471;28;20114;-85
2023/04/24 00:59:08;;;;;;;10.13;5.93;;;12.00;99.90;;;;;;4937472;28;20041;-86
2023/04/24 01:01:34;;;;;;;11.70;6.05;;;12.00;99.90;;;;;;4910553;28;20416;-84
2023/04/24 01:04:01;;;;;;;8.73;5.43;;;12.00;99.90;;;;;;4927321;28;20054;-85
2023/04/24 01:06:30;;;;;;;10.23;5.53;;;12.00;99.90;;;;;;4936585;28;20110;-83
2023/04/24 01:08:57;;;;;;;11.75;6.60;;;12.00;99.90;;;;;;4920559;28;20396;-85
2023/04/24 01:11:22;;;;;;;8.48;5.38;;;12.00;99.90;;;;;;4913171;28;20322;-82
2023/04/24 01:13:48;;;;;;;11.23;6.30;;;11.90;99.90;;;;;;4940485;28;20110;-83
2023/04/24 01:16:17;;;;;;;9.98;6.05;;;12.00;99.90;;;;;;4908109;28;20035;-85
2023/04/24 01:18:43;;;;;;;9.77;5.22;;;11.90;99.90;;;;;;4940284;28;20385;-85
2023/04/24 01:21:11;;;;;;;11.20;5.88;;;12.00;99.90;;;;;;4943819;28;20413;-84
2023/04/24 01:23:37;;;;;;;10.43;5.57;;;11.90;99.90;;;;;;4919612;28;20652;-84
2023/04/24 01:26:04;;;;;;;8.35;5.03;;;11.90;99.90;;;;;;4923214;28;20031;-84
2023/04/24 01:28:30;;;;;;;8.70;5.65;;;11.90;99.90;;;;;;4930069;28;20662;-83
2023/04/24 01:30:56;;;;;;;10.32;5.18;;;11.90;99.90;;;;;;4933411;28;20304;-84
2023/04/24 01:33:22;;;;;;;8.40;5.20;;;12.00;99.90;;;;;;4903631;28;20218;-82
2023/04/24 01:35:49;;;;;;;10.52;5.55;;;11.90;99.90;;;;;;4934330;28;20042;-83
2023/04/24 01:38:15;;;;;;;10.50;6.43;;;11.90;99.90;;;;;;4915212;28;20031;-85
2023/04/24 01:40:41;;;;;;;11.88;6.90;;;11.90;99.90;;;;;;4922919;28;20031;-86
2023/04/24 01:43:07;;;;;;;8.97;5.47;;;11.90;99.90;;;;;;4913040;28;20046;-84
2023/04/24 01:45:33;;;;;;;9.73;5.93;;;11.90;99.90;;;;;;4939439;28;20027;-81
2023/04/24 01:48:00;;;;;;;12.15;6.20;;;11.90;99.90;;;;;;4940812;28;20552;-83
2023/04/24 01:50:26;;;;;;;8.30;5.37;;;11.90;99.90;;;;;;4916668;28;20059;-83
2023/04/24 01:52:52;;;;;;;10.45;6.20;;;11.80;99.90;;;;;;4917454;29;20028;-83
2023/04/24 01:55:18;;;;;;;10.57;5.50;;;11.80;99.90;;;;;;4900262;29;20158;-85
2023/04/24 01:57:43;;;;;;;10.73;5.70;;;11.80;99.90;;;;;;4922716;28;20549;-85
2023/04/24 02:00:11;;;;;;;9.17;5.57;;;11.80;99.90;;;;;;4928718;28;20286;-84
2023/04/24 02:02:38;;;;;;;8.93;5.63;;;11.80;99.90;;;;;;4934665;28;20031;-83
2023/04/24 02:05:07;;;;;;;9.48;5.45;;;11.80;99.90;;;;;;4918162;28;20039;-85
2023/04/24 02:07:32;;;;;;;8.90;5.33;;;11.80;99.90;;;;;;4933893;28;20317;-84
2023/04/24 02:09:58;;;;;;;10.10;5.90;;;11.80;99.90;;;;;;4903182;28;21859;-84
2023/04/24 02:12:24;;;;;;;9.30;5.40;;;11.80;99.90;;;;;;4927687;28;20734;-84
2023/04/24 02:14:50;;;;;;;9.97;5.33;;;11.80;99.90;;;;;;4924586;28;20283;-84
2023/04/24 02:17:18;;;;;;;10.32;5.63;;;11.80;99.90;;;;;;4934195;28;20388;-85
2023/04/24 02:19:45;;;;;;;9.35;5.22;;;11.80;99.90;;;;;;4925400;28;20362;-82
2023/04/24 02:22:11;;;;;;;8.07;4.50;;;11.80;99.90;;;;;;4930977;28;20416;-86
2023/04/24 02:24:37;;;;;;;7.35;4.25;;;11.70;99.90;;;;;;4932182;28;20440;-84
2023/04/24 02:27:03;;;;;;;8.45;5.10;;;11.70;99.90;;;;;;4929977;28;20058;-86
2023/04/24 02:29:29;;;;;;;7.67;4.30;;;11.70;99.90;;;;;;4921484;28;20074;-83
2023/04/24 02:31:54;;;;;;;7.38;4.22;;;11.60;99.90;;;;;;4931488;28;20410;-84
2023/04/24 02:34:20;;;;;;;8.63;4.80;;;11.60;99.90;;;;;;4933462;28;20341;-83
2023/04/24 02:36:45;;;;;;;6.85;4.05;;;11.60;99.90;;;;;;4908525;28;20023;-85
2023/04/24 02:39:11;;;;;;;6.80;4.13;;;11.60;99.90;;;;;;4941889;28;20035;-85
2023/04/24 02:41:37;;;;;;;7.55;4.05;;;11.50;99.90;;;;;;4925204;28;20031;-85
2023/04/24 02:44:03;;;;;;;6.03;3.63;;;11.50;99.90;;;;;;4919230;29;20090;-86
2023/04/24 02:46:29;;;;;;;6.50;4.20;;;11.40;99.90;;;;;;4929359;28;20165;-83
2023/04/24 02:48:55;;;;;;;6.95;4.03;;;11.40;99.90;;;;;;4934888;28;20122;-85
2023/04/24 02:51:21;;;;;;;6.97;4.00;;;11.40;99.90;;;;;;4921884;28;20309;-87
2023/04/24 02:53:46;;;;;;;6.85;3.67;;;11.30;99.90;;;;;;4935601;28;20051;-85
2023/04/24 02:56:12;;;;;;;4.87;3.43;;;11.30;99.90;;;;;;4919550;28;20395;-88
2023/04/24 02:58:38;;;;;;;7.53;4.15;;;11.30;99.90;;;;;;4930221;28;20472;-87
2023/04/24 03:01:04;;;;;;;6.80;3.80;;;11.30;99.90;;;;;;4911141;28;20399;-87
2023/04/24 03:03:30;;;;;;;9.53;4.37;;;11.30;99.90;;;;;;4924924;28;20882;-85
2023/04/24 03:05:56;;;;;;;5.90;3.70;;;11.30;99.90;;;;;;4906045;29;20027;-86
2023/04/24 03:08:22;;;;;;;7.80;4.00;;;11.20;99.90;;;;;;4936953;28;20464;-85
2023/04/24 03:10:49;;;;;;;6.40;3.90;;;11.20;99.90;;;;;;4932752;28;20576;-85
2023/04/24 03:13:16;;;;;;;6.93;4.30;;;11.20;99.90;;;;;;4899754;29;20469;-87
2023/04/24 03:15:42;;;;;;;7.43;4.53;;;11.20;99.90;;;;;;4924324;28;20081;-88
2023/04/24 03:18:07;;;;;;;8.32;4.53;;;11.20;99.90;;;;;;4911649;29;20027;-88
2023/04/24 03:20:33;;;;;;;7.17;4.00;;;11.20;99.90;;;;;;4921125;28;20582;-85
2023/04/24 03:22:59;;;;;;;9.27;4.20;;;11.20;99.90;;;;;;4923729;28;20062;-86
2023/04/24 03:25:25;;;;;;;8.57;4.53;;;11.10;99.90;;;;;;4915079;28;20275;-86
2023/04/24 03:27:51;;;;;;;6.78;4.00;;;11.10;99.90;;;;;;4921387;28;20030;-87
2023/04/24 03:30:17;;;;;;;7.10;4.57;;;11.10;99.90;;;;;;4933945;28;20222;-85
2023/04/24 03:32:43;;;;;;;7.88;4.47;;;11.10;99.90;;;;;;4932275;28;20035;-85
2023/04/24 03:35:09;;;;;;;9.13;4.63;;;11.10;99.90;;;;;;4934360;28;20031;-88
2023/04/24 03:37:36;;;;;;;6.60;3.97;;;11.10;99.90;;;;;;4908297;28;20054;-91
2023/04/24 03:40:02;;;;;;;8.15;4.10;;;11.10;99.90;;;;;;4917227;29;20070;-88
2023/04/24 03:42:28;;;;;;;7.23;3.93;;;11.00;99.90;;;;;;4900906;28;20465;-87
2023/04/24 03:44:53;;;;;;;5.90;3.55;;;11.00;99.90;;;;;;4921294;29;20370;-88
2023/04/24 03:47:19;;;;;;;5.43;3.17;;;11.00;99.90;;;;;;4922380;28;20723;-87
2023/04/24 03:49:45;;;;;;;7.22;3.50;;;11.00;99.90;;;;;;4936127;28;20015;-87
2023/04/24 03:52:10;;;;;;;5.23;3.07;;;11.00;99.90;;;;;;4916194;28;21034;-88
2023/04/24 03:54:36;;;;;;;4.80;2.80;;;11.00;99.90;;;;;;4918235;28;20023;-84
2023/04/24 03:57:04;;;;;;;5.47;3.05;;;11.00;99.90;;;;;;4928071;28;20088;-90
2023/04/24 03:59:30;;;;;;;4.10;2.77;;;11.00;99.90;;;;;;4918277;28;20504;-87
2023/04/24 04:01:56;;;;;;;5.30;2.90;;;11.10;99.90;;;;;;4933403;28;20776;-85
2023/04/24 04:04:22;;;;;;;6.05;3.10;;;11.10;99.90;;;;;;4939789;28;20111;-87
2023/04/24 04:06:48;;;;;;;4.73;2.90;;;11.10;99.90;;;;;;4935193;28;20139;-86
2023/04/24 04:09:15;;;;;;;4.18;2.78;;;11.10;99.90;;;;;;4926843;28;20046;-88
2023/04/24 04:11:41;;;;;;;4.10;2.83;;;11.10;99.90;;;;;;4950714;28;20019;-88
2023/04/24 04:14:07;;;;;;;3.70;2.58;;;11.10;99.90;;;;;;4929277;28;20027;-88
2023/04/24 04:16:32;;;;;;;3.30;2.37;;;11.10;99.90;;;;;;4938449;28;20036;-87
2023/04/24 04:18:59;;;;;;;3.60;2.42;;;11.10;99.90;;;;;;4951870;28;20134;-86
2023/04/24 04:21:24;;;;;;;4.57;2.25;;;11.10;99.90;;;;;;4927115;28;20055;-86
2023/04/24 04:23:50;;;;;;;4.00;2.30;;;11.10;99.90;;;;;;4932260;28;20313;-89
2023/04/24 04:26:16;;;;;;;3.80;2.37;;;11.20;99.90;;;;;;4928949;28;20034;-84
2023/04/24 04:28:44;;;;;;;3.38;2.20;;;11.10;99.90;;;;;;4910746;28;20352;-85
2023/04/24 04:31:10;;;;;;;3.40;2.27;;;11.10;99.90;;;;;;4929950;28;20019;-85
2023/04/24 04:33:37;;;;;;;4.00;2.00;;;11.10;99.90;;;;;;4918843;28;20516;-88
2023/04/24 04:36:03;;;;;;;3.72;2.00;;;11.10;99.90;;;;;;4940104;28;20045;-84
2023/04/24 04:38:29;;;;;;;2.83;1.70;;;11.10;99.90;;;;;;4941551;28;20544;-89
2023/04/24 04:40:56;;;;;;;2.95;1.83;;;11.10;99.90;;;;;;4925199;28;20253;-88
2023/04/24 04:43:26;;;;;;;2.80;1.67;;;11.10;99.90;;;;;;4921382;28;21306;-86
2023/04/24 04:45:55;;;;;;;3.08;1.60;;;11.10;99.90;;;;;;4935608;28;20425;-84
2023/04/24 04:48:22;;;;;;;2.70;1.60;;;11.10;99.90;;;;;;4939736;28;20027;-87
2023/04/24 04:50:47;;;;;;;3.30;1.80;;;11.00;99.90;;;;;;4935901;28;20054;-85
2023/04/24 04:53:13;;;;;;;3.67;2.05;;;11.00;99.90;;;;;;4941893;28;20082;-86
2023/04/24 04:55:39;;;;;;;3.90;2.00;;;11.00;99.90;;;;;;4921980;28;20607;-83
2023/04/24 04:58:05;;;;;;;3.85;2.25;;;11.00;99.90;;;;;;4939002;28;20097;-85
2023/04/24 05:00:35;;;;;;;3.88;2.28;;;11.10;99.90;;;;;;4929738;28;20039;-87
2023/04/24 05:03:01;;;;;;;4.43;2.60;;;11.00;99.90;;;;;;4919570;28;20060;-85
2023/04/24 05:05:27;;;;;;;6.72;3.45;;;11.00;99.90;;;;;;4935735;28;20049;-84
2023/04/24 05:07:52;;;;;;;4.00;2.67;;;11.00;99.90;;;;;;4930566;28;20420;-86
2023/04/24 05:10:18;;;;;;;5.17;2.70;;;11.00;99.90;;;;;;4941810;28;20302;-86
2023/04/24 05:12:44;;;;;;;4.70;2.83;;;11.00;99.90;;;;;;4922498;28;20027;-88
2023/04/24 05:15:10;;;;;;;4.45;2.65;;;11.00;99.90;;;;;;4906985;28;20031;-86
2023/04/24 05:17:36;;;;;;;5.82;2.63;;;11.00;99.90;;;;;;4943859;28;20123;-85
2023/04/24 05:20:06;;;;;;;4.20;2.50;;;11.00;99.90;;;;;;4925714;28;20107;-88
2023/04/24 05:22:32;;;;;;;4.80;2.55;;;11.00;99.90;;;;;;4939201;28;20062;-87
2023/04/24 05:24:59;;;;;;;4.43;2.83;;;11.00;99.90;;;;;;4895813;28;21342;-86
2023/04/24 05:27:25;;;;;;;5.70;3.10;;;11.00;99.90;;;;;;4914370;28;20028;-85
2023/04/24 05:29:51;;;;;;;6.27;3.37;;;10.90;99.90;;;;;;4938831;28;20396;-88
2023/04/24 05:32:17;;;;;;;5.70;3.30;;;10.90;99.90;;;;;;4919427;28;20389;-84
2023/04/24 05:34:42;;;;;;;7.63;3.60;;;10.90;99.90;;;;;;4942179;28;20050;-86
2023/04/24 05:37:09;;;;;;;7.20;3.20;;;10.90;99.90;;;;;;4910066;29;20197;-85
2023/04/24 05:39:36;;;;;;;6.95;3.55;;;10.90;99.90;;;;;;4912081;29;20038;-85
2023/04/24 05:42:03;;;;;;;5.45;3.22;;;10.90;99.90;;;;;;4932920;28;20391;-85
2023/04/24 05:44:28;;;;;;;7.13;3.23;;;10.90;99.90;;;;;;4933828;28;20107;-85
2023/04/24 05:46:55;;;;;;;6.40;3.40;;;10.90;99.90;;;;;;4915483;28;20051;-87
2023/04/24 05:49:21;;;;;;;7.00;3.30;;;10.90;99.90;;;;;;4920470;28;20239;-89
2023/04/24 05:51:47;;;;;;;8.38;3.80;;;11.00;99.90;;;;;;4931938;28;20032;-87
2023/04/24 05:54:13;;;;;;;7.73;3.40;;;10.90;99.90;;;;;;4909080;29;20276;-84
2023/04/24 05:56:39;;;;;;;6.78;3.50;;;10.90;99.90;;;;;;4932555;28;20106;-85
2023/04/24 05:59:06;;;;;;;6.47;3.20;;;10.90;99.90;;;;;;4921371;28;20125;-90
2023/04/24 06:01:32;;;;;;;5.57;3.33;;;10.90;99.90;;;;;;4933445;28;20035;-85
2023/04/24 06:03:58;;;;;;;6.73;3.50;;;10.90;99.90;;;;;;4906779;28;20034;-86
2023/04/24 06:06:24;;;;;;;6.93;3.50;;;10.90;99.90;;;;;;4913291;28;20035;-84
2023/04/24 06:08:50;;;;;;;9.55;4.70;;;10.90;99.90;;;;;;4914897;28;20039;-89
2023/04/24 06:11:16;;;;;;;7.50;3.87;;;10.90;99.90;;;;;;4926631;28;20321;-87
2023/04/24 06:13:41;;;;;;;8.65;3.60;;;10.90;99.90;;;;;;4920149;28;20244;-87
2023/04/24 06:16:07;;;;;;;7.80;3.83;;;10.90;99.90;;;;;;4935042;28;20035;-88
2023/04/24 06:18:33;;;;;;;7.45;3.80;;;10.90;99.90;;;;;;4916156;28;20601;-85
2023/04/24 06:20:59;;;;;;;8.43;3.78;;;11.00;99.90;;;;;;4936389;28;20366;-87
2023/04/24 06:23:25;;;;;;;8.27;3.90;;;11.00;99.90;;;;;;4896858;28;20340;-86
2023/04/24 06:25:51;;;;;;;6.28;3.83;;;10.90;99.90;;;;;;4926529;28;20604;-86
2023/04/24 06:28:17;;;;;;;7.22;4.18;;;10.90;99.90;;;;;;4947320;28;20061;-86
2023/04/24 06:30:43;;;;;;;8.03;3.80;;;10.90;99.90;;;;;;4920268;28;20463;-88
2023/04/24 06:33:09;;;;;;;6.10;3.83;;;10.90;99.90;;;;;;4927964;28;20027;-88
2023/04/24 06:35:35;;;;;;;6.40;3.45;;;10.90;99.90;;;;;;4915303;28;20026;-87
2023/04/24 06:38:01;;;;;;;6.63;3.70;;;10.90;99.90;;;;;;4929492;28;20023;-87
2023/04/24 06:40:26;;;;;;;6.53;3.90;;;10.90;99.90;;;;;;4926838;28;20265;-87
2023/04/24 06:42:52;;;;;;;6.00;3.73;;;10.90;99.90;;;;;;4932553;28;20038;-86
2023/04/24 06:45:18;;;;;;;9.38;4.72;;;10.90;99.90;;;;;;4904413;28;20031;-88
2023/04/24 06:47:44;;;;;;;9.15;5.07;;;11.00;99.90;;;;;;4927108;28;20034;-86
2023/04/24 06:50:11;;;;;;;8.37;4.70;;;11.00;99.90;;;;;;4915987;28;20980;-90
2023/04/24 06:52:36;;;;;;;8.57;4.53;;;11.00;99.90;;;;;;4923218;28;20264;-89
2023/04/24 06:55:03;;;;;;;7.33;4.37;;;11.00;99.90;;;;;;4903515;28;20027;-86
2023/04/24 06:57:29;;;;;;;11.40;5.40;;;11.00;99.90;;;;;;4920454;28;20765;-87
2023/04/24 06:59:55;;;;;;;8.27;4.70;;;11.00;99.90;;;;;;4921756;28;20022;-88
2023/04/24 07:02:21;;;;;;;7.28;4.28;;;11.00;99.90;;;;;;4901666;28;21031;-89
2023/04/24 07:04:50;;;;;;;7.57;4.35;;;11.00;99.90;;;;;;4913673;28;20106;-85
2023/04/24 07:07:16;;;;;;;7.93;4.20;;;11.00;99.90;;;;;;4938017;28;20117;-86
2023/04/24 07:09:42;;;;;;;8.60;4.30;;;11.00;99.90;;;;;;4942106;28;20031;-83
2023/04/24 07:12:12;;;;;;;8.18;4.47;;;11.10;99.90;;;;;;4924032;28;20026;-86
2023/04/24 07:14:38;;;;;;;7.55;4.18;;;11.10;99.90;;;;;;4936148;28;20027;-86
2023/04/24 07:17:05;;;;;;;7.78;4.20;;;11.00;99.90;;;;;;4923362;28;20373;-87
2023/04/24 07:19:31;;;;;;;8.07;4.20;;;11.10;99.90;;;;;;4920370;28;20507;-87
2023/04/24 07:21:58;;;;;;;6.03;3.42;;;11.10;99.90;;;;;;4941743;28;20010;-89
2023/04/24 07:24:25;;;;;;;7.00;3.95;;;11.10;99.90;;;;;;4914198;28;20625;-86
2023/04/24 07:26:52;;;;;;;7.15;3.10;;;11.10;99.90;;;;;;4925097;28;20598;-86
2023/04/24 07:29:18;;;;;;;6.67;3.10;;;11.10;99.90;;;;;;4936622;28;20146;-84
2023/04/24 07:31:43;;;;;;;5.38;2.47;;;11.20;99.90;;;;;;4939316;28;20038;-85
2023/04/24 07:34:09;;;;;;;7.05;2.92;;;11.20;99.90;;;;;;4915645;28;20030;-88
2023/04/24 07:36:35;;;;;;;7.03;2.80;;;11.30;99.90;;;;;;4907136;28;20577;-84
2023/04/24 07:39:01;;;;;;;6.72;2.83;;;11.30;99.90;;;;;;4933884;28;20054;-88
2023/04/24 07:41:27;;;;;;;5.97;2.47;;;11.40;99.90;;;;;;4930630;28;20627;-87
2023/04/24 07:43:53;;;;;;;4.43;2.33;;;11.60;99.90;;;;;;4951568;28;20015;-83
2023/04/24 07:46:20;;;;;;;4.83;2.20;;;11.60;99.90;;;;;;4937708;28;20440;-85
2023/04/24 07:48:47;;;;;;;4.35;2.10;;;11.60;99.90;;;;;;4901230;28;20027;-87
2023/04/24 07:51:14;;;;;;;3.10;1.95;;;11.70;99.90;;;;;;4934694;28;20022;-87
2023/04/24 07:53:42;;;;;;;3.70;1.70;;;11.70;99.90;;;;;;4918189;28;20246;-86
2023/04/24 07:56:08;;;;;;;3.38;1.95;;;11.70;99.90;;;;;;4909827;28;20233;-89
2023/04/24 07:58:35;;;;;;;4.20;2.00;;;11.80;99.90;;;;;;4931900;28;20026;-85
2023/04/24 08:01:00;;;;;;;3.60;2.00;;;11.80;99.90;;;;;;4934387;28;20212;-88
2023/04/24 08:03:26;;;;;;;3.85;1.70;;;11.80;99.90;;;;;;4903765;28;20374;-87
2023/04/24 08:05:52;;;;;;;3.20;1.80;;;11.90;99.90;;;;;;4928771;28;20042;-85
2023/04/24 08:08:21;;;;;;;3.33;1.85;;;11.90;99.90;;;;;;4916978;28;20336;-84
2023/04/24 08:10:47;;;;;;;4.10;1.90;;;11.90;99.90;;;;;;4936251;28;20086;-88
2023/04/24 08:13:12;;;;;;;6.73;1.83;;;11.90;99.90;;;;;;4911341;28;20514;-87
2023/04/24 08:15:38;;;;;;;6.38;2.30;;;12.00;99.90;;;;;;4933424;28;20357;-84
2023/04/24 08:18:04;;;;;;;5.93;2.03;;;12.00;99.90;;;;;;4930776;28;20492;-87
2023/04/24 08:20:30;;;;;;;3.90;1.93;;;12.00;99.90;;;;;;4908570;28;20074;-86
2023/04/24 08:22:56;;;;;;;5.82;2.35;;;12.10;99.90;;;;;;4889102;28;20523;-87
2023/04/24 08:25:23;;;;;;;5.80;2.60;;;12.10;99.90;;;;;;4931606;28;20246;-89
2023/04/24 08:27:49;;;;;;;6.53;2.80;;;12.20;99.90;;;;;;4918926;28;20489;-89
2023/04/24 08:30:15;;;;;;;6.03;3.08;;;12.30;99.90;;;;;;4921530;28;20179;-84
2023/04/24 08:32:41;;;;;;;6.97;3.03;;;12.40;99.90;;;;;;4937674;28;20022;-86
2023/04/24 08:35:09;;;;;;;7.05;3.72;;;12.50;99.90;;;;;;4906990;28;20262;-85
2023/04/24 08:37:35;;;;;;;7.55;3.13;;;12.70;99.90;;;;;;4938672;28;20023;-84
2023/04/24 08:40:06;;;;;;;6.88;3.55;;;12.90;99.90;;;;;;4918364;28;20214;-85
2023/04/24 08:42:33;;;;;;;7.30;4.00;;;13.10;99.90;;;;;;4927819;28;20038;-84
2023/04/24 08:44:59;;;;;;;7.43;3.90;;;13.20;99.90;;;;;;4902484;28;20042;-87
2023/04/24 08:47:26;;;;;;;9.27;4.00;;;13.40;99.90;;;;;;4927790;28;20042;-83
2023/04/24 08:49:53;;;;;;;7.40;3.55;;;13.70;99.90;;;;;;4897044;28;20039;-88
2023/04/24 08:52:21;;;;;;;7.60;3.40;;;14.00;99.90;;;;;;4917990;28;20026;-83
2023/04/24 08:54:48;;;;;;;6.32;3.17;;;14.40;99.90;;;;;;4910739;28;20047;-87
2023/04/24 08:57:15;;;;;;;8.80;3.83;;;14.70;99.90;;;;;;4931345;28;20035;-84
2023/04/24 08:59:41;;;;;;;7.60;4.20;;;14.90;99.90;;;;;;4920586;28;20053;-85
2023/04/24 09:02:11;;;;;;;7.18;3.60;;;15.00;99.90;;;;;;4928346;28;20027;-87
2023/04/24 09:04:37;;;;;;;7.30;3.38;;;14.90;99.90;;;;;;4918399;28;20105;-87
2023/04/24 09:07:05;;;;;;;8.35;3.95;;;14.90;99.90;;;;;;4914611;28;20054;-84
2023/04/24 09:09:32;;;;;;;9.53;4.00;;;14.70;99.90;;;;;;4926347;28;20061;-84
2023/04/24 09:11:58;;;;;;;7.63;3.70;;;14.60;99.90;;;;;;4924150;28;20225;-85
2023/04/24 09:14:24;;;;;;;7.05;3.45;;;14.40;99.90;;;;;;4925766;28;20519;-83
2023/04/24 09:16:51;;;;;;;7.47;3.65;;;14.30;99.90;;;;;;4944289;28;20022;-86
2023/04/24 09:19:17;;;;;;;6.97;3.30;;;14.30;99.90;;;;;;4946924;28;20482;-84
2023/04/24 09:21:46;;;;;;;6.28;3.05;;;14.30;99.90;;;;;;4909544;28;20756;-86
2023/04/24 09:24:17;;;;;;;6.47;3.42;;;14.40;99.90;;;;;;4919641;28;20030;-84
2023/04/24 09:26:44;;;;;;;7.97;3.83;;;14.40;99.90;;;;;;4935699;28;20027;-86
2023/04/24 09:29:16;;;;;;;7.15;3.67;;;14.30;99.90;;;;;;4938812;28;20227;-83
2023/04/24 09:31:42;;;;;;;6.27;3.47;;;14.30;99.90;;;;;;4914183;28;20491;-86
2023/04/24 09:34:08;;;;;;;8.10;3.85;;;14.40;99.90;;;;;;4922290;28;20515;-83
2023/04/24 09:36:37;;;;;;;7.53;3.78;;;14.40;99.90;;;;;;4911617;28;20023;-84
2023/04/24 09:39:11;;;;;;;8.23;4.13;;;14.60;99.90;;;;;;4929537;28;20041;-83
2023/04/24 09:41:59;;;;;;;8.37;4.47;;;14.80;99.90;;;;;;4910629;28;20047;-84
2023/04/24 09:44:27;;;;;;;8.82;4.45;;;15.20;99.90;;;;;;4941981;28;20039;-83
2023/04/24 09:46:59;;;;;;;6.55;4.03;;;15.50;99.90;;;;;;4942353;28;20535;-86
2023/04/24 09:49:30;;;;;;;7.93;3.90;;;15.70;99.90;;;;;;4960171;28;20037;-83
2023/04/24 09:52:09;;;;;;;5.97;3.38;;;15.80;99.90;;;;;;4920158;28;20535;-83
2023/04/24 09:54:36;;;;;;;7.53;3.20;;;15.80;99.90;;;;;;4930205;28;20105;-85
2023/04/24 09:57:02;;;;;;;6.38;3.15;;;15.70;99.90;;;;;;4914381;28;20058;-86
2023/04/24 09:59:29;;;;;;;6.00;3.30;;;15.60;99.90;;;;;;4940294;28;20577;-85
2023/04/24 10:01:56;;;;;;;6.40;3.28;;;15.50;99.90;;;;;;4923541;28;20090;-81
2023/04/24 10:04:26;;;;;;;5.97;3.50;;;15.60;99.90;;;;;;4917963;28;20253;-84
2023/04/24 10:06:55;;;;;;;5.60;3.50;;;15.60;99.90;;;;;;4920424;28;20306;-82
2023/04/24 10:09:23;;;;;;;5.40;3.05;;;15.80;99.90;;;;;;4928851;28;20054;-82
2023/04/24 10:11:50;;;;;;;4.93;2.92;;;15.70;99.90;;;;;;4920930;28;20034;-81
2023/04/24 10:14:21;;;;;;;5.93;3.10;;;15.70;99.90;;;;;;4950650;28;20118;-84
2023/04/24 10:16:48;;;;;;;5.95;3.03;;;15.70;99.90;;;;;;4914406;28;20031;-83
2023/04/24 10:19:16;;;;;;;6.13;3.30;;;15.50;99.90;;;;;;4921541;28;20033;-84
2023/04/24 10:21:46;;;;;;;6.78;3.40;;;15.40;99.90;;;;;;4908383;28;20069;-85
2023/04/24 10:24:16;;;;;;;6.88;3.53;;;15.30;99.90;;;;;;4948009;28;20089;-86
2023/04/24 10:26:44;;;;;;;7.45;3.55;;;15.20;99.90;;;;;;4921956;28;20037;-81
2023/04/24 10:29:12;;;;;;;7.05;3.40;;;15.10;99.90;;;;;;4940966;28;20030;-83
2023/04/24 10:31:39;;;;;;;6.43;3.00;;;15.10;99.90;;;;;;4936676;28;20110;-83
2023/04/24 10:34:06;;;;;;;5.03;2.65;;;15.10;99.90;;;;;;4921022;28;20023;-83
2023/04/24 10:36:35;;;;;;;4.63;2.53;;;15.00;99.90;;;;;;4937766;28;20209;-81
2023/04/24 10:39:03;;;;;;;4.35;2.30;;;15.00;99.90;;;;;;4910712;28;20030;-84
2023/04/24 10:41:30;;;;;;;4.20;2.30;;;15.00;99.90;;;;;;4912483;28;20464;-84
2023/04/24 10:44:12;;;;;;;2.97;1.90;;;14.90;99.90;;;;;;4934722;28;20034;-83
2023/04/24 10:46:39;;;;;;;3.75;2.00;;;14.90;99.90;;;;;;4937717;28;20297;-81
2023/04/24 10:49:06;;;;;;;4.57;1.95;;;14.80;99.90;;;;;;4923795;28;20089;-86
2023/04/24 10:51:55;;;;;;;5.28;2.22;;;14.80;99.90;;;;;;4931708;28;20058;-83
2023/04/24 10:54:33;;;;;;;4.43;2.50;;;14.80;99.90;;;;;;4933038;28;20711;-82
2023/04/24 10:57:18;;;;;;;5.13;2.60;;;14.90;99.90;;;;;;4915623;28;20034;-86
2023/04/24 10:59:44;;;;;;;3.97;2.30;;;15.00;99.90;;;;;;4935341;28;20118;-81
2023/04/24 11:02:10;;;;;;;9.18;2.60;;;15.10;99.90;;;;;;4937200;28;20027;-83
2023/04/24 11:04:36;;;;;;;5.95;2.70;;;15.20;99.90;;;;;;4924997;28;20079;-83
2023/04/24 11:07:05;;;;;;;5.40;2.50;;;15.30;99.90;;;;;;4914054;28;20642;-83
2023/04/24 11:09:31;;;;;;;5.13;2.60;;;15.40;99.90;;;;;;4938643;28;20031;-84
2023/04/24 11:12:10;;;;;;;4.47;2.78;;;15.50;99.90;;;;;;4930054;28;20781;-85
2023/04/24 11:15:00;;;;;;;6.20;3.10;;;15.70;99.90;;;;;;4931449;28;20085;-83
2023/04/24 11:17:33;;;;;;;5.55;2.70;;;16.00;99.90;;;;;;4911044;28;20034;-84
2023/04/24 11:20:16;;;;;;;4.57;2.67;;;16.30;99.90;;;;;;4912943;28;20029;-83
2023/04/24 11:22:42;;;;;;;3.72;2.38;;;16.50;99.90;;;;;;4939340;28;20038;-81
2023/04/24 11:25:11;;;;;;;4.47;2.45;;;16.60;99.90;;;;;;4941752;28;20400;-84
2023/04/24 11:27:46;;;;;;;3.90;2.40;;;16.60;99.90;;;;;;4932212;28;20653;-82
2023/04/24 11:30:12;;;;;;;9.63;2.50;;;16.60;99.90;;;;;;4941195;28;20049;-86
2023/04/24 11:32:40;;;;;;;4.93;2.42;;;16.50;99.90;;;;;;4926272;28;20102;-83
2023/04/24 11:35:20;;;;;;;4.13;2.90;;;16.50;99.90;;;;;;4916856;28;20386;-82
2023/04/24 11:37:49;;;;;;;4.55;2.58;;;16.40;99.90;;;;;;4918402;28;20031;-84
2023/04/24 11:40:16;;;;;;;5.13;2.63;;;16.40;99.90;;;;;;4917615;28;20527;-85
2023/04/24 11:42:44;;;;;;;5.63;3.17;;;16.50;99.90;;;;;;4915789;28;20409;-85
2023/04/24 11:45:24;;;;;;;5.50;3.22;;;16.60;99.90;;;;;;4935314;28;20427;-82
2023/04/24 11:47:50;;;;;;;6.53;3.42;;;16.80;99.90;;;;;;4951170;28;20113;-85
2023/04/24 11:50:17;;;;;;;6.35;3.40;;;16.90;99.90;;;;;;4912359;28;20426;-82
2023/04/24 11:52:45;;;;;;;6.53;3.47;;;17.00;99.90;;;;;;4935439;28;20025;-84
2023/04/24 11:55:16;;;;;;;4.95;3.10;;;17.10;99.90;;;;;;4922864;28;20050;-82
2023/04/24 11:57:47;;;;;;;5.38;3.25;;;17.10;99.90;;;;;;4931311;28;20250;-86
2023/04/24 12:00:20;;;;;;;4.97;3.20;;;17.10;99.90;;;;;;4900826;28;20400;-82
2023/04/24 12:02:46;;;;;;;4.72;3.03;;;17.20;99.90;;;;;;4929937;28;20019;-83
2023/04/24 12:05:26;;;;;;;5.60;3.70;;;17.30;99.90;;;;;;4920345;28;20269;-81
2023/04/24 12:07:53;;;;;;;6.88;2.92;;;17.50;99.90;;;;;;4923679;28;20023;-83
2023/04/24 12:10:27;;;;;;;5.07;2.70;;;17.60;99.90;;;;;;4914900;28;20535;-84
2023/04/24 12:12:53;;;;;;;5.28;2.88;;;17.80;99.90;;;;;;4922306;28;20023;-85
2023/04/24 12:15:20;;;;;;;5.20;2.73;;;17.90;99.90;;;;;;4909498;28;20042;-84
2023/04/24 12:17:46;;;;;;;5.32;3.15;;;17.90;99.90;;;;;;4918824;28;20126;-83
2023/04/24 12:20:13;;;;;;;4.93;3.10;;;18.00;99.90;;;;;;4926177;28;20026;-82
2023/04/24 12:22:54;;;;;;;7.00;3.42;;;18.00;99.90;;;;;;4929271;28;20096;-83
2023/04/24 12:25:22;;;;;;;5.93;3.20;;;18.10;99.90;;;;;;4932228;28;20078;-82
2023/04/24 12:28:10;;;;;;;5.10;2.90;;;18.10;99.90;;;;;;4928124;28;20023;-82
2023/04/24 12:30:48;;;;;;;5.32;3.03;;;18.10;99.90;;;;;;4918665;28;20069;-83
2023/04/24 12:33:18;;;;;;;4.93;2.90;;;18.10;99.90;;;;;;4937332;28;20031;-85
2023/04/24 12:35:44;;;;;;;5.65;3.00;;;18.10;99.90;;;;;;4923917;28;20031;-83
2023/04/24 12:38:13;;;;;;;4.73;3.00;;;18.10;99.90;;;;;;4951106;28;20062;-83
2023/04/24 12:40:41;;;;;;;4.40;2.50;;;18.00;99.90;;;;;;4944041;28;20511;-83
2023/04/24 12:43:18;;;;;;;4.97;2.72;;;18.00;99.90;;;;;;4910888;28;20034;-85
2023/04/24 12:45:44;;;;;;;4.47;2.60;;;18.00;99.90;;;;;;4901772;28;20034;-85